Time;durP1;ratioP1;P1;durP2;ratioP2;P2;SDS_P1;SDS_P2;PMS_P1;PMS_P2;Temp;Humidity;BMP_temperature;BMP_pressure;BME280_temperature;BME280_humidity;BME280_pressure;Samples;Min_cycle;Max_cycle;Signal;HPM_P1;HPM_P2
2022/05/21 00:02:14;;;;;;;3.77;2.83;;;22.80;86.60;;;;;;7373398;19;20728;-40
2022/05/21 00:04:46;;;;;;;3.13;2.83;;;22.80;86.20;;;;;;7372833;19;20781;-40
2022/05/21 00:07:15;;;;;;;3.90;3.13;;;22.70;86.10;;;;;;7372671;19;20391;-40
2022/05/21 00:09:45;;;;;;;3.53;3.23;;;22.70;85.90;;;;;;7374597;19;20383;-44
2022/05/21 00:12:19;;;;;;;3.10;2.80;;;22.70;84.70;;;;;;7376391;19;20742;-44
2022/05/21 00:14:55;;;;;;;3.37;2.90;;;22.70;85.20;;;;;;7377025;19;20372;-44
2022/05/21 00:17:27;;;;;;;4.10;2.77;;;22.60;84.80;;;;;;7376083;19;20408;-44
2022/05/21 00:19:56;;;;;;;3.80;3.20;;;22.50;84.90;;;;;;7374416;19;20372;-43
2022/05/21 00:22:29;;;;;;;5.67;3.20;;;22.40;85.80;;;;;;7373172;19;20392;-44
2022/05/21 00:24:58;;;;;;;3.50;3.17;;;22.40;85.90;;;;;;7372580;19;20380;-44
2022/05/21 00:27:30;;;;;;;3.10;2.60;;;22.50;85.80;;;;;;7374109;19;20397;-43
2022/05/21 00:30:02;;;;;;;3.73;3.40;;;22.50;85.80;;;;;;7375683;19;21047;-44
2022/05/21 00:32:32;;;;;;;3.93;2.93;;;22.40;85.00;;;;;;7375927;19;20372;-44
2022/05/21 00:35:01;;;;;;;5.80;3.27;;;22.40;85.50;;;;;;7375128;19;20375;-44
2022/05/21 00:37:31;;;;;;;6.20;2.70;;;22.40;85.60;;;;;;7373964;19;20380;-45
2022/05/21 00:40:02;;;;;;;3.40;2.70;;;22.30;84.70;;;;;;7374989;19;20379;-44
2022/05/21 00:42:34;;;;;;;3.17;2.87;;;22.30;84.50;;;;;;7376924;19;22254;-44
2022/05/21 00:45:08;;;;;;;3.60;2.93;;;22.10;83.30;;;;;;7371462;19;20439;-44
2022/05/21 00:47:38;;;;;;;2.90;2.60;;;22.20;83.20;;;;;;7372617;19;20962;-45
2022/05/21 00:50:10;;;;;;;2.50;2.30;;;22.10;82.60;;;;;;7366932;19;20432;-45
2022/05/21 00:52:41;;;;;;;4.33;2.50;;;21.90;83.20;;;;;;7375089;19;20372;-45
2022/05/21 00:55:20;;;;;;;4.03;2.33;;;22.00;84.40;;;;;;7371666;19;20925;-44
2022/05/21 00:59:47;;;;;;;3.70;2.50;;;22.00;84.20;;;;;;7372941;19;20372;-44
2022/05/21 01:00:44;;;;;;;4.77;2.70;;;21.90;85.30;;;;;;7375309;19;20368;-43
2022/05/21 01:03:18;;;;;;;3.00;2.70;;;21.80;84.90;;;;;;7376471;19;20857;-43
2022/05/21 01:05:50;;;;;;;4.63;2.80;;;21.70;86.00;;;;;;7373877;19;20376;-44
2022/05/21 01:08:23;;;;;;;4.80;2.17;;;21.60;85.90;;;;;;7372317;19;20388;-44
2022/05/21 01:10:56;;;;;;;4.17;2.13;;;21.70;84.80;;;;;;7372050;19;20759;-44
2022/05/21 01:13:34;;;;;;;4.20;2.30;;;21.70;84.10;;;;;;7375011;19;20368;-44
2022/05/21 01:16:04;;;;;;;2.90;2.17;;;21.70;82.90;;;;;;7375398;19;20390;-44
2022/05/21 01:18:34;;;;;;;2.17;1.97;;;21.70;82.50;;;;;;7372238;19;20933;-44
2022/05/21 01:21:03;;;;;;;2.53;2.30;;;21.30;81.70;;;;;;7372040;19;20372;-43
2022/05/21 01:23:36;;;;;;;3.43;2.50;;;21.70;81.80;;;;;;7375181;19;20384;-44
2022/05/21 01:26:08;;;;;;;3.30;2.13;;;21.80;82.40;;;;;;7371632;19;20375;-44
2022/05/21 01:28:40;;;;;;;2.50;2.30;;;21.70;81.00;;;;;;7372363;19;20388;-43
2022/05/21 01:31:09;;;;;;;5.60;2.37;;;21.70;81.10;;;;;;7372293;19;20424;-44
2022/05/21 01:33:44;;;;;;;3.00;2.47;;;21.60;80.30;;;;;;7369721;19;20925;-43
2022/05/21 01:36:14;;;;;;;2.30;2.10;;;21.60;78.10;;;;;;7369310;19;20365;-43
2022/05/21 01:38:49;;;;;;;2.23;1.70;;;21.50;77.60;;;;;;7370436;19;20401;-44
2022/05/21 01:41:21;;;;;;;2.53;1.93;;;21.30;77.30;;;;;;7375902;19;20387;-43
2022/05/21 01:46:37;;;;;;;2.27;1.73;;;21.40;76.90;;;;;;7363998;19;20363;-44
2022/05/21 01:49:09;;;;;;;2.50;2.07;;;21.40;78.40;;;;;;7362492;19;20428;-43
2022/05/21 01:51:38;;;;;;;4.10;2.17;;;21.40;77.30;;;;;;7365851;19;20400;-44
2022/05/21 01:54:10;;;;;;;2.27;2.10;;;21.40;76.30;;;;;;7370233;19;20372;-45
2022/05/21 01:56:40;;;;;;;3.10;1.93;;;21.20;76.40;;;;;;7369231;19;20375;-44
2022/05/21 01:59:10;;;;;;;2.17;1.80;;;21.30;77.10;;;;;;7370391;19;20380;-44
2022/05/21 02:01:42;;;;;;;2.63;1.90;;;21.00;77.80;;;;;;7372382;19;20902;-45
2022/05/21 02:04:11;;;;;;;2.80;2.50;;;21.00;78.30;;;;;;7369050;19;20391;-43
2022/05/21 02:06:42;;;;;;;6.33;2.90;;;21.00;79.30;;;;;;7370286;19;21055;-44
2022/05/21 02:09:19;;;;;;;2.40;1.90;;;21.00;77.80;;;;;;7369035;19;20376;-44
2022/05/21 02:11:50;;;;;;;2.33;2.13;;;21.00;77.60;;;;;;7368360;19;20363;-40
2022/05/21 02:14:22;;;;;;;2.40;2.20;;;21.20;78.60;;;;;;7370146;19;20364;-40
2022/05/21 02:16:54;;;;;;;2.83;2.20;;;20.70;79.00;;;;;;7375153;19;20387;-40
2022/05/21 02:19:26;;;;;;;2.30;2.10;;;20.70;78.60;;;;;;7371929;19;20384;-40
2022/05/21 02:21:56;;;;;;;3.00;2.30;;;20.80;78.40;;;;;;7368915;19;20812;-40
2022/05/21 02:24:31;;;;;;;2.83;2.17;;;20.80;78.40;;;;;;7368974;19;21052;-40
2022/05/21 02:27:01;;;;;;;3.13;2.07;;;20.80;78.80;;;;;;7372321;19;20910;-40
2022/05/21 02:29:30;;;;;;;2.30;2.10;;;20.90;77.80;;;;;;7367724;19;20384;-40
2022/05/21 02:32:02;;;;;;;3.03;2.30;;;20.90;77.30;;;;;;7372095;19;20371;-40
2022/05/21 02:34:31;;;;;;;1.80;1.70;;;20.80;77.30;;;;;;7373744;19;20376;-40
2022/05/21 02:39:50;;;;;;;4.73;2.30;;;20.60;77.60;;;;;;7372140;19;20404;-43
2022/05/21 02:45:05;;;;;;;4.53;2.33;;;20.40;78.90;;;;;;7372257;19;20372;-44
2022/05/21 02:47:37;;;;;;;2.47;2.10;;;20.80;79.10;;;;;;7369729;19;21218;-44
2022/05/21 02:50:08;;;;;;;2.37;2.17;;;20.20;79.00;;;;;;7360900;19;20425;-44
2022/05/21 02:52:37;;;;;;;2.13;1.90;;;20.30;79.30;;;;;;7371871;19;20382;-44
2022/05/21 02:55:15;;;;;;;3.10;2.13;;;20.10;79.70;;;;;;7374593;19;20831;-44
2022/05/21 02:57:47;;;;;;;2.80;2.00;;;20.20;80.40;;;;;;7370614;19;20431;-44
2022/05/21 03:00:22;;;;;;;2.20;2.00;;;20.10;81.10;;;;;;7367934;19;21460;-44
2022/05/21 03:02:52;;;;;;;5.10;2.10;;;20.20;79.70;;;;;;7372109;19;20372;-45
2022/05/21 03:05:22;;;;;;;2.43;2.10;;;20.30;80.20;;;;;;7370886;19;20465;-44
2022/05/21 03:07:54;;;;;;;2.17;1.97;;;20.30;79.70;;;;;;7377409;19;20460;-44
2022/05/21 03:10:26;;;;;;;4.67;2.57;;;20.40;79.20;;;;;;7379377;19;20363;-44
2022/05/21 03:12:59;;;;;;;2.60;2.40;;;20.30;80.70;;;;;;7376796;19;20391;-44
2022/05/21 03:15:36;;;;;;;4.90;2.23;;;20.30;78.60;;;;;;7374028;19;20375;-44
2022/05/21 03:18:08;;;;;;;2.70;2.43;;;20.20;79.30;;;;;;7379432;19;20376;-43
2022/05/21 03:20:40;;;;;;;2.37;2.17;;;20.20;78.60;;;;;;7374793;19;20380;-44
2022/05/21 03:23:10;;;;;;;5.50;3.70;;;20.10;78.60;;;;;;7376489;19;20973;-44
2022/05/21 03:25:45;;;;;;;6.33;2.63;;;20.10;78.80;;;;;;7380085;19;20439;-44
2022/05/21 03:28:18;;;;;;;4.43;2.67;;;20.00;79.40;;;;;;7374744;19;20386;-43
2022/05/21 03:30:51;;;;;;;4.07;3.07;;;19.70;80.40;;;;;;7373178;19;20949;-45
2022/05/21 03:33:20;;;;;;;3.33;2.60;;;19.40;80.70;;;;;;7372483;19;20380;-45
2022/05/21 03:35:49;;;;;;;4.53;3.33;;;19.50;82.40;;;;;;7377561;19;20382;-44
2022/05/21 03:38:21;;;;;;;3.20;2.90;;;19.60;80.70;;;;;;7376721;19;20372;-46
2022/05/21 03:40:53;;;;;;;3.10;2.33;;;19.40;81.00;;;;;;7374619;19;20380;-45
2022/05/21 03:43:24;;;;;;;4.13;2.20;;;19.30;81.60;;;;;;7376713;19;20384;-45
2022/05/21 03:45:55;;;;;;;3.93;2.77;;;19.30;81.00;;;;;;7372502;19;20372;-43
2022/05/21 03:48:27;;;;;;;3.20;2.60;;;19.40;81.70;;;;;;7371738;19;21192;-44
2022/05/21 03:50:59;;;;;;;2.83;2.57;;;19.60;80.40;;;;;;7371998;19;20376;-43
2022/05/21 03:53:29;;;;;;;5.23;3.57;;;19.60;79.50;;;;;;7374522;19;20385;-44
2022/05/21 03:56:03;;;;;;;3.20;2.77;;;19.70;79.10;;;;;;7373725;19;20384;-44
2022/05/21 03:58:35;;;;;;;2.03;1.93;;;19.30;78.20;;;;;;7374955;19;20421;-44
2022/05/21 04:01:07;;;;;;;3.43;2.77;;;19.70;78.80;;;;;;7372925;19;21004;-44
2022/05/21 04:03:39;;;;;;;2.80;2.20;;;19.60;78.80;;;;;;7374405;19;20383;-45
2022/05/21 04:06:08;;;;;;;2.70;2.50;;;19.40;79.20;;;;;;7374157;19;20384;-46
2022/05/21 04:08:41;;;;;;;2.90;2.70;;;19.30;79.40;;;;;;7370915;19;20419;-45
2022/05/21 04:11:13;;;;;;;3.40;2.70;;;19.20;79.90;;;;;;7376742;19;20377;-46
2022/05/21 04:13:43;;;;;;;2.97;2.47;;;19.20;79.80;;;;;;7374939;19;20898;-46
2022/05/21 04:16:12;;;;;;;4.57;2.40;;;19.20;79.30;;;;;;7374942;19;20415;-46
2022/05/21 04:18:42;;;;;;;2.33;2.07;;;19.10;79.60;;;;;;7370072;19;20388;-45
2022/05/21 04:21:14;;;;;;;3.63;2.10;;;19.10;80.40;;;;;;7371198;19;20479;-45
2022/05/21 04:23:43;;;;;;;2.50;2.17;;;19.20;79.40;;;;;;7373682;19;20372;-48
2022/05/21 04:26:15;;;;;;;3.57;2.60;;;19.60;79.80;;;;;;7374616;19;20376;-45
2022/05/21 04:28:45;;;;;;;5.23;2.43;;;19.20;78.60;;;;;;7373278;19;20376;-44
2022/05/21 04:31:14;;;;;;;3.00;2.50;;;19.10;77.90;;;;;;7375027;19;20397;-45
2022/05/21 04:33:44;;;;;;;3.50;2.60;;;19.00;78.50;;;;;;7374328;19;20361;-45
2022/05/21 04:36:22;;;;;;;4.03;2.60;;;19.00;77.30;;;;;;7374792;19;20771;-45
2022/05/21 04:38:53;;;;;;;3.10;2.50;;;19.10;77.00;;;;;;7368829;19;20482;-45
2022/05/21 04:41:26;;;;;;;4.80;1.90;;;19.00;76.00;;;;;;7373905;19;20368;-45
2022/05/21 04:43:56;;;;;;;2.93;2.53;;;19.00;76.40;;;;;;7375037;19;20368;-45
2022/05/21 04:46:28;;;;;;;3.47;2.20;;;18.90;75.40;;;;;;7374898;19;21016;-45
2022/05/21 04:49:00;;;;;;;5.67;2.40;;;18.90;74.80;;;;;;7370001;19;20783;-46
2022/05/21 04:51:29;;;;;;;3.40;2.17;;;18.70;74.90;;;;;;7373070;19;20757;-45
2022/05/21 04:54:01;;;;;;;2.80;2.43;;;18.80;75.90;;;;;;7368919;19;21097;-45
2022/05/21 04:56:36;;;;;;;1.87;1.77;;;18.90;75.30;;;;;;7372731;19;20376;-45
2022/05/21 04:59:06;;;;;;;4.13;2.10;;;19.00;75.40;;;;;;7373505;19;20950;-45
2022/05/21 05:01:36;;;;;;;2.10;1.90;;;18.90;73.70;;;;;;7372673;19;20913;-45
2022/05/21 05:04:07;;;;;;;4.10;2.17;;;19.00;74.40;;;;;;7374973;19;20422;-45
2022/05/21 05:06:38;;;;;;;2.33;1.80;;;19.00;75.00;;;;;;7371512;19;20453;-44
2022/05/21 05:09:12;;;;;;;2.53;2.20;;;19.00;73.90;;;;;;7372740;19;20644;-45
2022/05/21 05:11:49;;;;;;;3.50;2.10;;;18.90;74.40;;;;;;7358873;19;21185;-44
2022/05/21 05:14:18;;;;;;;2.93;2.10;;;19.00;74.20;;;;;;7374958;19;21244;-44
2022/05/21 05:16:48;;;;;;;2.00;1.70;;;19.00;74.10;;;;;;7374970;19;20427;-45
2022/05/21 05:19:20;;;;;;;2.83;2.20;;;18.90;75.20;;;;;;7366743;19;20447;-43
2022/05/21 05:21:49;;;;;;;2.50;2.30;;;19.10;73.10;;;;;;7366228;19;20910;-45
2022/05/21 05:24:20;;;;;;;2.10;1.90;;;19.00;72.80;;;;;;7375411;19;20373;-43
2022/05/21 05:26:52;;;;;;;2.40;1.70;;;19.20;74.10;;;;;;7376832;19;21029;-44
2022/05/21 05:29:21;;;;;;;2.60;1.90;;;19.60;71.80;;;;;;7374776;19;20387;-45
2022/05/21 05:31:52;;;;;;;2.33;1.50;;;19.20;69.90;;;;;;7359354;19;20375;-45
2022/05/21 05:34:24;;;;;;;2.20;1.60;;;19.00;72.10;;;;;;7366720;19;20372;-45
2022/05/21 05:36:54;;;;;;;2.50;2.07;;;19.10;74.90;;;;;;7365751;19;21394;-44
2022/05/21 05:39:26;;;;;;;3.13;1.80;;;19.40;69.80;;;;;;7369423;19;20368;-44
2022/05/21 05:41:58;;;;;;;2.50;2.37;;;19.50;71.20;;;;;;7370531;19;20360;-44
2022/05/21 05:44:27;;;;;;;4.40;1.60;;;19.70;72.40;;;;;;7358728;19;20387;-43
2022/05/21 05:46:57;;;;;;;1.90;1.50;;;20.20;68.80;;;;;;7374465;19;20384;-45
2022/05/21 05:49:30;;;;;;;1.53;1.40;;;20.10;66.10;;;;;;7363381;19;20428;-45
2022/05/21 05:51:59;;;;;;;1.83;1.73;;;20.30;66.30;;;;;;7372567;19;20383;-43
2022/05/21 05:54:31;;;;;;;1.43;1.33;;;20.50;64.10;;;;;;7371818;19;21906;-42
2022/05/21 05:57:04;;;;;;;2.73;1.73;;;20.50;65.40;;;;;;7372877;19;20601;-42
2022/05/21 06:05:03;;;;;;;1.80;1.60;;;20.40;65.30;;;;;;7376510;19;20413;-43
2022/05/21 06:07:33;;;;;;;3.47;1.23;;;20.60;66.20;;;;;;7370624;19;20376;-44
2022/05/21 06:10:05;;;;;;;2.57;1.40;;;20.80;59.40;;;;;;7373767;19;20383;-43
2022/05/21 06:12:37;;;;;;;1.43;1.27;;;20.80;58.40;;;;;;7373735;19;20393;-45
2022/05/21 06:15:09;;;;;;;2.73;1.30;;;20.90;57.20;;;;;;7374538;19;20418;-42
2022/05/21 06:17:39;;;;;;;2.10;1.40;;;21.00;58.00;;;;;;7373309;19;20471;-43
2022/05/21 06:20:14;;;;;;;2.00;1.40;;;21.10;57.80;;;;;;7372873;19;20376;-38
2022/05/21 06:22:49;;;;;;;3.40;1.30;;;21.20;56.40;;;;;;7373295;19;20747;-41
2022/05/21 06:25:25;;;;;;;3.10;1.90;;;21.30;56.30;;;;;;7370779;19;20460;-38
2022/05/21 06:27:59;;;;;;;2.00;1.10;;;21.30;55.50;;;;;;7374694;19;20368;-41
2022/05/21 06:30:30;;;;;;;2.37;1.30;;;21.60;55.30;;;;;;7374696;19;20380;-41
2022/05/21 06:33:14;;;;;;;1.77;1.20;;;21.60;53.90;;;;;;7369751;19;20380;-41
2022/05/21 06:35:46;;;;;;;1.60;1.23;;;21.50;55.30;;;;;;7373521;19;20387;-41
2022/05/21 06:38:16;;;;;;;3.70;1.13;;;21.60;54.70;;;;;;7374199;19;20387;-39
2022/05/21 06:40:46;;;;;;;4.00;1.37;;;21.70;53.50;;;;;;7373701;19;20380;-41
2022/05/21 06:43:20;;;;;;;1.90;1.30;;;21.80;54.20;;;;;;7378185;19;20654;-40
2022/05/21 06:45:49;;;;;;;1.70;1.23;;;22.00;53.20;;;;;;7378630;19;20379;-40
2022/05/21 06:48:22;;;;;;;1.17;0.93;;;22.00;52.10;;;;;;7377944;19;20427;-40
2022/05/21 06:50:55;;;;;;;2.40;1.10;;;21.80;52.70;;;;;;7379057;19;20795;-44
2022/05/21 06:53:26;;;;;;;1.60;0.80;;;22.10;51.40;;;;;;7382273;19;20414;-43
2022/05/21 06:55:57;;;;;;;1.87;1.10;;;22.30;52.20;;;;;;7380131;19;20779;-43
2022/05/21 06:58:29;;;;;;;3.00;1.20;;;22.30;50.90;;;;;;7380628;19;20504;-45
2022/05/21 07:00:58;;;;;;;1.47;0.97;;;22.40;51.10;;;;;;7380416;19;20380;-45
2022/05/21 07:03:28;;;;;;;1.87;1.23;;;22.60;49.70;;;;;;7379285;19;20914;-44
2022/05/21 07:08:42;;;;;;;2.40;0.90;;;22.40;50.20;;;;;;7382946;19;20393;-44
2022/05/21 07:11:14;;;;;;;2.80;1.10;;;22.50;50.40;;;;;;7382390;19;20372;-45
2022/05/21 07:13:50;;;;;;;1.50;0.97;;;22.60;49.40;;;;;;7381549;19;20405;-45
2022/05/21 07:16:19;;;;;;;0.90;0.80;;;22.60;48.80;;;;;;7382833;19;20383;-45
2022/05/21 07:18:49;;;;;;;1.20;1.00;;;22.40;51.20;;;;;;7380303;19;20464;-44
2022/05/21 07:21:21;;;;;;;1.30;0.90;;;22.50;49.70;;;;;;7379281;19;20392;-43
2022/05/21 07:23:54;;;;;;;2.60;1.20;;;22.50;50.90;;;;;;7378849;19;20379;-45
2022/05/21 07:26:23;;;;;;;1.73;0.90;;;22.70;50.50;;;;;;7380342;19;21169;-45
2022/05/21 07:29:00;;;;;;;2.03;0.97;;;22.80;49.40;;;;;;7383195;19;20901;-45
2022/05/21 07:31:32;;;;;;;1.40;1.00;;;23.00;49.10;;;;;;7382130;19;20382;-44
2022/05/21 07:34:01;;;;;;;1.13;1.03;;;23.10;48.30;;;;;;7379323;19;20760;-44
2022/05/21 07:36:34;;;;;;;1.27;0.77;;;23.20;47.90;;;;;;7379606;19;20460;-44
2022/05/21 07:39:03;;;;;;;1.17;0.83;;;23.20;47.70;;;;;;7380360;19;20360;-44
2022/05/21 07:41:33;;;;;;;1.30;0.77;;;23.30;47.00;;;;;;7380563;19;20387;-44
2022/05/21 07:44:13;;;;;;;1.30;0.90;;;23.40;47.00;;;;;;7380150;19;20392;-46
2022/05/21 07:46:45;;;;;;;1.00;0.70;;;23.50;46.00;;;;;;7382746;19;20409;-45
2022/05/21 07:49:14;;;;;;;2.43;0.80;;;23.50;45.50;;;;;;7379421;19;20428;-44
2022/05/21 07:51:44;;;;;;;3.40;0.70;;;23.50;46.60;;;;;;7379864;19;21926;-45
2022/05/21 07:54:15;;;;;;;0.87;0.60;;;23.50;45.90;;;;;;7381116;19;20383;-45
2022/05/21 07:56:48;;;;;;;2.30;0.90;;;23.70;46.70;;;;;;7378932;19;20379;-44
2022/05/21 07:59:20;;;;;;;2.30;0.90;;;23.90;45.80;;;;;;7378135;19;20740;-40
2022/05/21 08:01:52;;;;;;;1.63;0.70;;;24.00;44.80;;;;;;7379192;19;21304;-40
2022/05/21 08:04:24;;;;;;;0.83;0.83;;;24.20;44.40;;;;;;7376632;19;20933;-40
2022/05/21 08:06:56;;;;;;;1.60;0.70;;;24.10;43.60;;;;;;7379698;19;20801;-42
2022/05/21 08:09:27;;;;;;;1.13;0.53;;;24.10;44.70;;;;;;7379660;19;21077;-40
2022/05/21 08:12:02;;;;;;;0.83;0.60;;;24.20;43.60;;;;;;7381601;19;20941;-40
2022/05/21 08:14:36;;;;;;;1.10;0.43;;;24.20;45.10;;;;;;7378491;19;21109;-40
2022/05/21 08:17:11;;;;;;;1.27;0.70;;;24.30;42.90;;;;;;7382354;19;20388;-40
2022/05/21 08:19:43;;;;;;;0.93;0.80;;;24.30;44.00;;;;;;7377906;19;20376;-40
2022/05/21 08:27:39;;;;;;;1.57;0.90;;;24.80;43.00;;;;;;7379839;19;20730;-40
2022/05/21 08:30:12;;;;;;;0.90;0.60;;;25.00;42.60;;;;;;7378478;19;20478;-45
2022/05/21 08:32:42;;;;;;;1.50;1.33;;;25.10;42.20;;;;;;7381943;19;20375;-45
2022/05/21 08:35:13;;;;;;;1.17;0.70;;;25.20;43.70;;;;;;7378957;19;20364;-45
2022/05/21 08:37:43;;;;;;;1.47;0.73;;;25.50;41.80;;;;;;7378252;19;20379;-45
2022/05/21 08:40:18;;;;;;;1.20;0.80;;;25.50;41.20;;;;;;7376079;19;20773;-46
2022/05/21 08:42:56;;;;;;;1.03;0.90;;;25.60;42.50;;;;;;7376559;19;20376;-44
2022/05/21 08:45:45;;;;;;;1.30;1.00;;;25.90;41.20;;;;;;7377900;19;20376;-45
2022/05/21 08:48:21;;;;;;;0.70;0.60;;;26.00;40.00;;;;;;7371188;19;20403;-45
2022/05/21 08:50:56;;;;;;;1.17;0.90;;;26.10;40.30;;;;;;7376228;19;20383;-44
2022/05/21 08:53:31;;;;;;;1.10;0.70;;;26.10;39.20;;;;;;7375918;19;20395;-45
2022/05/21 08:56:05;;;;;;;0.77;0.40;;;26.40;41.40;;;;;;7377056;19;20384;-45
2022/05/21 08:58:42;;;;;;;1.73;0.63;;;26.70;38.60;;;;;;7373710;19;20368;-45
2022/05/21 09:01:15;;;;;;;1.63;0.50;;;26.90;38.90;;;;;;7376725;19;20376;-44
2022/05/21 09:03:45;;;;;;;1.30;0.50;;;27.20;39.60;;;;;;7377102;19;20384;-45
2022/05/21 09:06:31;;;;;;;0.80;0.70;;;27.30;37.10;;;;;;7376381;19;20963;-45
2022/05/21 09:09:09;;;;;;;1.80;0.60;;;27.70;37.40;;;;;;7376297;19;20384;-44
2022/05/21 09:11:47;;;;;;;4.30;0.80;;;28.10;37.10;;;;;;7378415;19;20388;-45
2022/05/21 09:14:25;;;;;;;0.60;0.50;;;27.90;35.70;;;;;;7379408;19;20738;-45
2022/05/21 09:17:00;;;;;;;0.60;0.50;;;27.70;36.40;;;;;;7377719;19;20477;-45
2022/05/21 09:19:37;;;;;;;0.97;0.60;;;27.60;37.60;;;;;;7377153;19;20391;-45
2022/05/21 09:22:11;;;;;;;0.60;0.60;;;27.90;37.10;;;;;;7375862;19;20383;-44
2022/05/21 09:24:43;;;;;;;1.40;0.80;;;28.10;37.00;;;;;;7378930;19;20380;-45
2022/05/21 09:27:32;;;;;;;2.13;0.70;;;28.50;35.60;;;;;;7375811;19;20731;-45
2022/05/21 09:30:19;;;;;;;2.10;0.60;;;29.10;34.60;;;;;;7377021;19;20504;-46
2022/05/21 09:32:57;;;;;;;1.57;0.90;;;29.90;34.90;;;;;;7375735;19;21015;-45
2022/05/21 09:35:31;;;;;;;1.90;0.70;;;30.30;33.30;;;;;;7377552;19;20368;-45
2022/05/21 09:38:14;;;;;;;3.80;0.60;;;30.50;33.60;;;;;;7374543;19;21622;-45
2022/05/21 09:40:44;;;;;;;1.40;0.70;;;30.90;33.40;;;;;;7376099;19;20376;-45
2022/05/21 09:46:19;;;;;;;1.20;0.63;;;32.10;31.10;;;;;;7378013;19;20385;-45
2022/05/21 09:48:53;;;;;;;2.07;0.53;;;32.80;30.10;;;;;;7369236;19;20443;-45
2022/05/21 09:51:29;;;;;;;1.47;0.60;;;33.20;29.20;;;;;;7376488;19;20792;-46
2022/05/21 09:53:59;;;;;;;1.17;0.70;;;33.80;29.00;;;;;;7376437;19;20376;-46
2022/05/21 09:56:33;;;;;;;1.83;0.53;;;33.50;29.40;;;;;;7377411;19;20384;-45
2022/05/21 09:59:14;;;;;;;1.93;0.70;;;33.50;29.40;;;;;;7375463;19;21181;-45
2022/05/21 10:01:47;;;;;;;1.13;0.50;;;33.90;28.40;;;;;;7375478;19;20912;-47
2022/05/21 10:04:27;;;;;;;1.03;0.53;;;34.30;28.00;;;;;;7377594;19;20935;-46
2022/05/21 10:07:04;;;;;;;0.70;0.60;;;34.50;28.20;;;;;;7376069;19;20368;-47
2022/05/21 10:12:29;;;;;;;0.80;0.70;;;35.90;26.90;;;;;;7374441;19;20669;-47
2022/05/21 10:15:05;;;;;;;2.10;0.60;;;37.20;25.10;;;;;;7375293;19;20785;-47
2022/05/21 10:17:42;;;;;;;1.23;0.73;;;38.00;25.10;;;;;;7377871;19;20383;-48
2022/05/21 10:20:22;;;;;;;2.40;0.90;;;38.80;24.30;;;;;;7380959;19;20786;-47
2022/05/21 10:23:00;;;;;;;1.27;0.80;;;39.60;23.60;;;;;;7380788;19;20384;-47
2022/05/21 10:25:45;;;;;;;1.60;0.70;;;39.80;23.30;;;;;;7383771;19;21228;-47
2022/05/21 10:28:27;;;;;;;1.43;0.60;;;39.90;22.90;;;;;;7384629;19;20375;-47
2022/05/21 10:31:20;;;;;;;1.80;0.80;;;39.60;23.20;;;;;;7386483;19;20875;-47
2022/05/21 10:34:03;;;;;;;1.20;0.60;;;39.00;23.20;;;;;;7386899;19;20416;-46
2022/05/21 10:36:51;;;;;;;1.40;0.70;;;38.80;23.90;;;;;;7385750;19;20376;-46
2022/05/21 10:39:35;;;;;;;1.40;0.70;;;39.30;23.00;;;;;;7385223;19;20929;-46
2022/05/21 10:42:23;;;;;;;2.10;1.00;;;39.10;23.40;;;;;;7379113;19;20395;-46
2022/05/21 10:45:11;;;;;;;1.50;0.63;;;38.80;23.50;;;;;;7382828;19;20380;-46
2022/05/21 10:48:07;;;;;;;1.90;0.60;;;38.20;23.50;;;;;;7382240;19;20958;-46
2022/05/21 10:50:42;;;;;;;1.13;0.50;;;38.30;23.20;;;;;;7377896;19;20765;-46
2022/05/21 10:53:56;;;;;;;1.17;0.60;;;39.00;23.50;;;;;;7384864;19;20390;-46
2022/05/21 10:56:48;;;;;;;1.17;0.70;;;39.70;22.80;;;;;;7380222;19;20409;-46
2022/05/21 10:59:43;;;;;;;1.20;0.63;;;39.70;22.50;;;;;;7379861;19;20422;-46
2022/05/21 11:02:35;;;;;;;2.13;0.87;;;40.40;22.40;;;;;;7379682;19;20399;-46
2022/05/21 11:05:46;;;;;;;1.83;0.50;;;40.80;21.90;;;;;;7378301;19;20400;-46
2022/05/21 11:08:28;;;;;;;0.93;0.60;;;41.10;21.20;;;;;;7381801;19;20425;-46
2022/05/21 11:11:05;;;;;;;1.20;0.70;;;40.90;21.40;;;;;;7383747;19;20376;-46
2022/05/21 11:13:39;;;;;;;1.43;0.57;;;40.20;22.60;;;;;;7381702;19;20726;-46
2022/05/21 11:16:15;;;;;;;1.83;0.53;;;39.80;22.40;;;;;;7383788;19;20376;-46
2022/05/21 11:18:53;;;;;;;1.63;0.63;;;40.00;22.60;;;;;;7382152;19;20736;-46
2022/05/21 11:21:28;;;;;;;1.00;0.70;;;40.40;21.60;;;;;;7380626;19;20400;-46
2022/05/21 11:24:08;;;;;;;2.40;0.97;;;40.80;21.50;;;;;;7380600;19;20391;-46
2022/05/21 11:26:43;;;;;;;2.40;1.00;;;40.90;21.90;;;;;;7381710;19;20380;-46
2022/05/21 11:29:24;;;;;;;1.50;0.63;;;40.80;21.70;;;;;;7381074;19;20380;-46
2022/05/21 11:37:29;;;;;;;0.80;0.60;;;40.80;21.10;;;;;;7382938;19;20396;-46
2022/05/21 11:40:04;;;;;;;1.10;0.63;;;41.10;21.70;;;;;;7381101;19;20416;-46
2022/05/21 11:42:36;;;;;;;0.70;0.50;;;41.00;21.30;;;;;;7378619;19;20385;-46
2022/05/21 11:45:23;;;;;;;2.10;0.70;;;40.80;21.60;;;;;;7378782;19;20443;-46
2022/05/21 11:47:58;;;;;;;1.77;0.67;;;40.20;21.60;;;;;;7380750;19;20372;-46
2022/05/21 11:50:32;;;;;;;1.60;0.80;;;;;;;;;;7374408;19;20384;-46
2022/05/21 11:53:26;;;;;;;2.47;0.63;;;40.20;21.80;;;;;;7380362;19;20748;-46
2022/05/21 11:56:08;;;;;;;1.70;0.80;;;40.90;21.70;;;;;;7378077;19;20416;-46
2022/05/21 11:59:24;;;;;;;1.23;0.70;;;41.10;21.90;;;;;;7359303;19;20383;-46
2022/05/21 12:02:00;;;;;;;2.13;0.70;;;40.60;21.80;;;;;;7363311;19;20385;-46
2022/05/21 12:04:56;;;;;;;2.07;0.93;;;40.80;21.20;;;;;;7361457;19;20384;-46
2022/05/21 12:07:56;;;;;;;1.47;0.60;;;40.80;21.30;;;;;;7371291;19;20377;-46
2022/05/21 12:10:53;;;;;;;3.53;0.87;;;40.20;22.30;;;;;;7371106;19;20420;-46
2022/05/21 12:13:53;;;;;;;1.70;0.60;;;40.40;21.20;;;;;;7363863;19;20471;-46
2022/05/21 12:16:48;;;;;;;1.23;0.77;;;40.60;21.60;;;;;;7374354;19;20992;-46
2022/05/21 12:19:49;;;;;;;1.40;0.70;;;40.70;21.00;;;;;;7376622;19;20380;-46
2022/05/21 12:22:37;;;;;;;1.60;0.80;;;40.80;20.70;;;;;;7374189;19;20391;-46
2022/05/21 12:25:15;;;;;;;1.87;1.10;;;41.10;20.60;;;;;;7377419;19;21064;-46
2022/05/21 12:27:54;;;;;;;1.70;0.90;;;41.40;21.20;;;;;;7379820;19;20415;-46
2022/05/21 12:30:32;;;;;;;2.00;0.90;;;41.60;20.10;;;;;;7379344;19;20850;-46
2022/05/21 12:33:01;;;;;;;1.33;0.70;;;41.60;20.70;;;;;;7378155;19;20376;-46
2022/05/21 12:35:51;;;;;;;3.80;1.70;;;41.50;20.00;;;;;;7375546;19;20379;-46
2022/05/21 12:38:30;;;;;;;5.70;0.93;;;41.60;19.60;;;;;;7379702;19;20376;-46
2022/05/21 12:41:08;;;;;;;1.10;0.67;;;41.10;19.80;;;;;;7376885;19;20380;-46
2022/05/21 12:43:47;;;;;;;1.57;0.60;;;41.00;20.80;;;;;;7376123;19;20376;-46
2022/05/21 12:46:29;;;;;;;1.57;0.70;;;41.30;20.60;;;;;;7377254;19;20380;-46
2022/05/21 12:49:01;;;;;;;2.50;1.20;;;41.20;20.10;;;;;;7364638;19;20428;-46
2022/05/21 12:51:35;;;;;;;0.90;0.70;;;40.70;20.30;;;;;;7376251;19;20373;-46
2022/05/21 12:54:07;;;;;;;3.40;0.73;;;40.70;20.60;;;;;;7377189;19;20375;-46
2022/05/21 12:56:40;;;;;;;1.67;0.83;;;40.80;20.80;;;;;;7377129;19;20482;-47
2022/05/21 12:59:12;;;;;;;2.60;1.00;;;40.70;20.70;;;;;;7371673;19;20387;-46
2022/05/21 13:02:01;;;;;;;1.40;0.80;;;40.60;20.60;;;;;;7378845;19;20385;-45
2022/05/21 13:04:34;;;;;;;2.63;0.90;;;40.80;20.20;;;;;;7377354;19;20382;-46
2022/05/21 13:07:07;;;;;;;2.10;0.80;;;40.70;20.90;;;;;;7379225;19;20413;-46
2022/05/21 13:09:39;;;;;;;1.20;0.60;;;39.70;20.50;;;;;;7376597;19;20913;-46
2022/05/21 13:12:17;;;;;;;3.20;0.93;;;39.30;21.50;;;;;;7377353;19;20391;-46
2022/05/21 13:14:50;;;;;;;1.20;0.80;;;39.00;21.60;;;;;;7376771;19;20370;-46
2022/05/21 13:17:34;;;;;;;1.30;0.80;;;38.70;21.60;;;;;;7347892;19;20432;-46
2022/05/21 13:20:11;;;;;;;2.37;0.70;;;39.00;21.60;;;;;;7374938;19;20388;-46
2022/05/21 13:23:05;;;;;;;1.90;0.87;;;38.80;22.20;;;;;;7375288;19;20906;-46
2022/05/21 13:25:36;;;;;;;1.13;0.53;;;38.90;21.40;;;;;;7377910;19;20380;-46
2022/05/21 13:28:15;;;;;;;4.60;0.87;;;38.10;21.30;;;;;;7377337;19;20380;-46
2022/05/21 13:30:49;;;;;;;0.73;0.60;;;37.40;21.90;;;;;;7375925;19;20522;-45
2022/05/21 13:33:35;;;;;;;2.53;0.90;;;36.90;22.30;;;;;;7375793;19;20371;-46
2022/05/21 13:36:13;;;;;;;1.80;0.80;;;36.50;22.50;;;;;;7374786;19;21018;-46
2022/05/21 13:38:46;;;;;;;3.00;0.70;;;36.40;23.00;;;;;;7377277;19;20399;-46
2022/05/21 13:41:28;;;;;;;3.00;0.83;;;35.80;22.60;;;;;;7373774;19;20384;-45
2022/05/21 13:44:00;;;;;;;1.97;0.97;;;34.80;23.60;;;;;;7374087;19;20906;-45
2022/05/21 13:46:32;;;;;;;1.13;0.80;;;33.90;24.90;;;;;;7375196;19;20914;-45
2022/05/21 13:49:19;;;;;;;1.77;0.70;;;33.30;25.00;;;;;;7370671;19;20431;-45
2022/05/21 13:51:53;;;;;;;2.30;0.80;;;32.50;25.80;;;;;;7373157;19;20380;-45
2022/05/21 13:54:24;;;;;;;1.23;0.80;;;31.90;26.50;;;;;;7372706;19;20372;-45
2022/05/21 13:57:15;;;;;;;1.10;0.70;;;31.30;27.20;;;;;;7375957;19;20376;-45
2022/05/21 13:59:58;;;;;;;1.00;0.80;;;30.90;28.40;;;;;;7374716;19;20376;-45
2022/05/21 14:02:37;;;;;;;0.97;0.70;;;30.50;29.00;;;;;;7375214;19;20740;-45